Utah County RPA :: 9BIRCH

liberation: 2020-10-31  08:40     latitude: 45.378017     longitude: -112.704717 75 birds
# LOFT PRING MILES ARRIVAL SPEED ToWin
1 Riley Allred AU20-UCA-127 367.455 2020-10-31 15:50:30.254 1502.242 00:00:00
2 Riley Allred AU20-UCA-106 367.455 2020-10-31 15:50:31.517 1502.169 00:00:01
3 Riley Allred AU20-UCA-101 367.455 2020-10-31 15:50:36.244 1501.894 00:00:06
4 Riley Allred AU20-UCA-116 367.455 2020-10-31 15:53:05.401 1493.273 00:02:35
5 Riley Allred AU20-UCA-170 367.455 2020-10-31 15:53:16.585 1492.630 00:02:46
6 Peery Loft AU20-UCA-0025 371.424 2020-10-31 16:04:03.941 1472.095 00:08:55
7 Dry Creek Lofts AU20-NEBO-340 373.109 2020-10-31 16:07:08.856 1468.578 00:10:01
8 Peery Loft AU20-UCA-0019 371.424 2020-10-31 16:06:02.647 1465.565 00:10:53
9 Peery Loft AU20-UCA-0003 371.424 2020-10-31 16:07:02.139 1462.315 00:11:53
10 Riley Allred AU20-UCA-166 367.455 2020-10-31 16:04:41.280 1454.326 00:14:11
11 Craig Allred AU20-UVI-303 367.455 2020-10-31 16:04:42.734 1454.247 00:14:12
12 Dry Creek Lofts AU20-NEB0-334 373.109 2020-10-31 16:14:00.787 1446.371 00:16:53
13 Riley Allred AU20-UCA-107 367.455 2020-10-31 16:08:19.436 1442.532 00:17:49
14 Cole Allred AU20-NLI-2004 367.455 2020-10-31 16:08:19.646 1442.521 00:17:49
15 Riley Allred AU20-UCA-169 367.455 2020-10-31 16:08:24.079 1442.283 00:17:54
16 Peery Loft AU20-UCA-0033 371.424 2020-10-31 16:13:19.248 1442.040 00:18:10
17 Cole Allred AU20-NLI-2008 367.455 2020-10-31 16:08:32.006 1441.858 00:18:02
18 Dry Creek Lofts AU-20-NEBO-323 373.109 2020-10-31 16:15:30.789 1441.608 00:18:23
19 Cole Allred AU20-HARM-2617 367.455 2020-10-31 16:09:12.313 1439.702 00:18:42
20 Riley Allred AU20-UCA-144 367.455 2020-10-31 16:09:30.187 1438.748 00:19:00
21 Riley Allred AU20-UCA-151 367.455 2020-10-31 16:09:34.390 1438.523 00:19:04
22 Riley Allred AU20-UCA-119 367.455 2020-10-31 16:09:34.993 1438.491 00:19:05
23 Cole Allred AU20-NLI-2413 367.455 2020-10-31 16:09:40.515 1438.197 00:19:10
24 Riley Allred AU20-UCA-102 367.455 2020-10-31 16:09:41.283 1438.156 00:19:11
25 Peery Loft AU20-UCA-0034 371.424 2020-10-31 16:17:16.179 1429.587 00:22:07
26 Peery Loft AU20-UCA-0042 371.424 2020-10-31 16:18:25.535 1425.982 00:23:16
27 Craig Allred AU20-UVI-361 367.455 2020-10-31 16:17:17.035 1414.267 00:26:47
28 Riley Allred AU20-UCA-136 367.455 2020-10-31 16:17:20.621 1414.082 00:26:50
29 Peery Loft AU20-UCA-0032 371.424 2020-10-31 16:24:00.617 1408.820 00:28:51
30 Peery Loft AU20-UCA-0038 371.424 2020-10-31 16:26:44.342 1400.583 00:31:35
31 Riley Allred AU20-UCA-153 367.455 2020-10-31 16:25:57.185 1387.954 00:35:27
32 Cole Allred AU20-HARM-1689 367.455 2020-10-31 16:28:44.597 1379.692 00:38:14
33 Peery Loft AU20-UCA-0049 371.424 2020-10-31 16:36:16.945 1372.519 00:41:08
34 Dry Creek Lofts AU20-NEBO-303 373.109 2020-10-31 16:39:51.813 1368.454 00:42:44
35 Cole Allred AU20-NLI-2121 367.455 2020-10-31 16:33:25.613 1366.043 00:42:55
36 Cole Allred IF20-VDB-31 367.455 2020-10-31 16:33:29.224 1365.869 00:42:59
37 Dry Creek Lofts AU20-NEBO-332 373.109 2020-10-31 16:42:34.123 1360.783 00:45:26
38 Cole Allred AU20-NLI-2419 367.455 2020-10-31 16:36:47.927 1356.383 00:46:18
39 Dry Creek Lofts AU20-NEBO-328 373.109 2020-10-31 16:44:18.243 1355.907 00:47:11
40 Dry Creek Lofts AU20-NEBO-357 373.109 2020-10-31 16:48:18.482 1344.789 00:51:11
41 Peery Loft AU20-UCA-0041 371.424 2020-10-31 16:49:35.792 1335.195 00:54:27
42 Craig Allred AU20-UVI-366 367.455 2020-10-31 16:45:47.285 1331.283 00:55:17
43 Ross Johnson AU20-NEBO-13 366.077 2020-10-31 16:47:35.056 1321.404 00:58:42
44 Dry Creek Lofts AU20-NEBO-349 373.109 2020-10-31 16:57:25.567 1320.138 01:00:18
45 Craig Allred AU20-UVI-359 367.455 2020-10-31 16:50:16.028 1319.121 00:59:46
46 Ross Johnson AU20-NEBO-45 366.077 2020-10-31 16:52:04.856 1309.329 01:03:11
47 Riley Allred AU20-UCA-147 367.455 2020-10-31 16:55:57.374 1303.989 01:05:27
48 Cole Allred AU20-NLI-2503 367.455 2020-10-31 16:55:58.822 1303.926 01:05:29
49 Dry Creek Lofts AU20-NEBO-301 373.109 2020-10-31 17:07:39.197 1293.543 01:10:32
50 Cole Allred AU20-NLI-2417 367.455 2020-10-31 17:00:54.877 1291.081 01:10:25
51 Dry Creek Lofts AU20-NEBO-327 373.109 2020-10-31 17:09:10.992 1289.656 01:12:03
52 Cole Allred AU20-HARM-1695 367.455 2020-10-31 17:01:34.849 1289.367 01:11:05
53 Dry Creek Lofts AU20-NEBO-305 373.109 2020-10-31 17:10:36.711 1286.048 01:13:29
54 Dry Creek Lofts AU20-NEBO-315 373.109 2020-10-31 17:10:38.883 1285.957 01:13:31
55 Dry Creek Lofts AU20-NEBO-329 373.109 2020-10-31 17:12:43.883 1280.731 01:15:36
56 Riley Allred AU20-UCA-161 367.455 2020-10-31 17:07:21.678 1274.677 01:16:51
57 Dry Creek Lofts AU20-NEBO-311 373.109 2020-10-31 17:37:08.554 1222.527 01:40:01
58 Riley Allred AU20-UCA-157 367.455 2020-10-31 17:32:47.710 1213.828 01:42:17
59 Dry Creek Lofts AU20-NEBO-319 373.109 2020-10-31 18:03:24.159 1165.545 02:06:17
60 Dry Creek Lofts AU20-NEBO-356 373.109 2020-10-31 18:10:15.728 1151.525 02:13:08
61 Riley Allred AU20-UCA-156 367.455 2020-10-31 18:17:49.527 1119.233 02:27:19
62 Dry Creek Lofts AU20-NEBO-360 373.109 2020-10-31 18:29:18.383 1114.312 02:32:11
63 Dry Creek Lofts AU20-UCA-358 373.109 2020-10-31 18:42:45.128 1089.455 02:45:37
64 Ross Johnson AU20-NEBO-20 366.077 2020-10-31 18:32:55.033 1086.654 02:44:02
65 Dry Creek Lofts AU20-NEBO-322 373.109 2020-11-01 08:26:04.012 919.750 04:36:50
Cole Allred AU20-NLI-2015 0 0000-00-00 00:00:00.000 0.000 00:00:00
Cole Allred IF20-VDB-0055 0 0000-00-00 00:00:00.000 0.000 00:00:00
Cole Allred IF20-VDB-0060 0 0000-00-00 00:00:00.000 0.000 00:00:00
Cole Allred IF20-VDB-25 0 0000-00-00 00:00:00.000 0.000 00:00:00
Craig Allred AU20-UVI-339 0 0000-00-00 00:00:00.000 0.000 00:00:00
Craig Allred AU20-UVI-352 0 0000-00-00 00:00:00.000 0.000 00:00:00
Craig Allred AU20-UVI-358 0 0000-00-00 00:00:00.000 0.000 00:00:00
Dry Creek Lofts AU20-NEBO-361 0 0000-00-00 00:00:00.000 0.000 00:00:00
Dry Creek Lofts AU20-NEBO-365 0 0000-00-00 00:00:00.000 0.000 00:00:00
Riley Allred AU20-UCA-132 0 0000-00-00 00:00:00.000 0.000 00:00:00